Time;durP1;ratioP1;P1;durP2;ratioP2;P2;SDS_P1;SDS_P2;PMS_P1;PMS_P2;Temp;Humidity;BMP_temperature;BMP_pressure;BME280_temperature;BME280_humidity;BME280_pressure;Samples;Min_cycle;Max_cycle;Signal;HPM_P1;HPM_P2
2021/06/18 00:00:12;;;;;;;32.47;29.25;;;20.60;99.90;;;;;;4963237;28;20043;-79
2021/06/18 00:02:38;;;;;;;32.70;29.10;;;20.60;99.90;;;;;;4978594;28;20061;-80
2021/06/18 00:05:08;;;;;;;32.05;28.92;;;20.50;99.90;;;;;;4974167;28;20038;-80
2021/06/18 00:07:34;;;;;;;35.30;30.20;;;20.50;99.90;;;;;;4978184;28;20042;-79
2021/06/18 00:10:00;;;;;;;33.60;29.55;;;20.50;99.90;;;;;;4977756;28;20178;-80
2021/06/18 00:12:26;;;;;;;36.15;32.60;;;20.50;99.90;;;;;;4978723;28;20038;-79
2021/06/18 00:14:52;;;;;;;35.30;31.60;;;20.40;99.90;;;;;;4969099;28;20105;-79
2021/06/18 00:17:17;;;;;;;36.08;32.13;;;20.30;99.90;;;;;;4962275;28;20046;-79
2021/06/18 00:19:43;;;;;;;36.72;32.63;;;20.30;99.90;;;;;;4976435;28;20546;-79
2021/06/18 00:22:09;;;;;;;38.17;34.05;;;20.30;99.90;;;;;;4965183;28;20547;-79
2021/06/18 00:24:34;;;;;;;36.88;32.83;;;20.20;99.90;;;;;;4978065;28;20089;-80
2021/06/18 00:27:00;;;;;;;35.72;32.35;;;20.20;99.90;;;;;;4978148;28;20135;-80
2021/06/18 00:29:25;;;;;;;36.88;33.30;;;20.20;99.90;;;;;;4979240;28;20034;-80
2021/06/18 00:31:51;;;;;;;36.45;33.00;;;20.20;99.90;;;;;;4980499;28;20074;-79
2021/06/18 00:34:16;;;;;;;35.03;31.42;;;20.10;99.90;;;;;;4964450;28;20115;-80
2021/06/18 00:36:42;;;;;;;36.70;33.13;;;20.10;99.90;;;;;;4966981;28;20043;-79
2021/06/18 00:39:08;;;;;;;37.78;33.78;;;20.00;99.90;;;;;;4965580;28;20512;-79
2021/06/18 00:41:33;;;;;;;37.97;34.03;;;20.00;99.90;;;;;;4977660;28;20042;-80
2021/06/18 00:43:59;;;;;;;38.45;34.63;;;20.00;99.90;;;;;;4978904;28;20075;-79
2021/06/18 00:46:24;;;;;;;39.20;35.20;;;19.90;99.90;;;;;;4978853;28;20109;-79
2021/06/18 00:48:51;;;;;;;39.30;35.13;;;19.90;99.90;;;;;;4976519;28;20038;-79
2021/06/18 00:51:18;;;;;;;39.17;35.40;;;19.90;99.90;;;;;;4978516;28;20046;-80
2021/06/18 00:53:44;;;;;;;38.20;33.75;;;19.80;99.90;;;;;;4965229;28;20049;-80
2021/06/18 00:56:10;;;;;;;38.97;34.88;;;19.80;99.90;;;;;;4980233;28;20057;-80
2021/06/18 00:58:37;;;;;;;35.88;32.25;;;19.70;99.90;;;;;;4978869;28;20047;-80
2021/06/18 01:01:03;;;;;;;34.35;30.85;;;19.70;99.90;;;;;;4978188;28;20045;-79
2021/06/18 01:03:28;;;;;;;36.75;32.13;;;19.70;99.90;;;;;;4963352;28;20038;-80
2021/06/18 01:05:54;;;;;;;34.13;30.45;;;19.70;99.90;;;;;;4977528;28;20161;-80
2021/06/18 01:08:38;;;;;;;35.05;31.35;;;19.70;99.90;;;;;;4980297;28;21452;-79
2021/06/18 01:11:22;;;;;;;36.45;31.80;;;19.70;99.90;;;;;;4979091;28;20486;-79
2021/06/18 01:13:51;;;;;;;33.88;30.45;;;19.70;99.90;;;;;;4978247;28;20042;-79
2021/06/18 01:16:31;;;;;;;32.33;29.17;;;19.60;99.90;;;;;;4977132;28;20493;-79
2021/06/18 01:19:04;;;;;;;37.22;33.28;;;19.60;99.90;;;;;;4975851;28;20113;-79
2021/06/18 01:21:53;;;;;;;34.20;30.70;;;19.60;99.90;;;;;;4959011;28;20041;-80
2021/06/18 01:24:55;;;;;;;34.58;30.98;;;19.50;99.90;;;;;;4978622;28;20034;-80
2021/06/18 01:27:31;;;;;;;36.13;32.35;;;19.50;99.90;;;;;;4975460;28;20102;-80
2021/06/18 01:30:13;;;;;;;35.30;31.77;;;19.50;99.90;;;;;;4976347;28;20113;-79
2021/06/18 01:32:44;;;;;;;36.25;32.05;;;19.50;99.90;;;;;;4979603;28;20038;-80
2021/06/18 01:35:17;;;;;;;32.72;29.60;;;19.40;99.90;;;;;;4978947;28;20072;-80
2021/06/18 01:37:47;;;;;;;32.53;29.05;;;19.40;99.90;;;;;;4980506;28;20129;-80
2021/06/18 01:40:15;;;;;;;34.75;30.45;;;19.40;99.90;;;;;;4959127;28;20045;-80
2021/06/18 01:42:42;;;;;;;32.78;29.63;;;19.40;99.90;;;;;;4960507;28;20041;-80
2021/06/18 01:45:12;;;;;;;35.42;31.83;;;19.40;99.90;;;;;;4978379;28;20043;-79
2021/06/18 01:47:39;;;;;;;30.85;27.98;;;19.40;99.90;;;;;;4961018;28;20550;-79
2021/06/18 01:50:07;;;;;;;32.55;29.38;;;19.40;99.90;;;;;;4978239;28;20045;-80
2021/06/18 01:52:36;;;;;;;33.40;30.23;;;19.40;99.90;;;;;;4980006;28;20038;-79
2021/06/18 01:55:03;;;;;;;35.92;32.17;;;19.40;99.90;;;;;;4974143;28;20069;-80
2021/06/18 01:57:32;;;;;;;36.30;31.88;;;19.40;99.90;;;;;;4979755;28;20629;-79
2021/06/18 01:59:59;;;;;;;37.03;33.13;;;19.30;99.90;;;;;;4976252;28;20047;-80
2021/06/18 02:02:28;;;;;;;35.63;31.98;;;19.30;99.90;;;;;;4977498;28;20038;-79
2021/06/18 02:04:55;;;;;;;35.55;32.13;;;19.30;99.90;;;;;;4976141;28;20038;-79
2021/06/18 02:07:24;;;;;;;36.17;32.25;;;19.30;99.90;;;;;;4958930;28;20098;-79
2021/06/18 02:09:50;;;;;;;35.17;31.33;;;19.30;99.90;;;;;;4964015;28;20038;-79
2021/06/18 02:12:16;;;;;;;40.80;34.95;;;19.20;99.90;;;;;;4975714;28;20038;-80
2021/06/18 02:14:43;;;;;;;37.97;32.88;;;19.20;99.90;;;;;;4976616;28;20121;-79
2021/06/18 02:17:11;;;;;;;38.28;34.25;;;19.20;99.90;;;;;;4958566;28;20725;-79
2021/06/18 02:19:39;;;;;;;35.95;32.22;;;19.20;99.90;;;;;;4979441;28;20105;-79
2021/06/18 02:22:11;;;;;;;39.28;35.10;;;19.20;99.90;;;;;;4977199;28;20066;-79
2021/06/18 02:24:39;;;;;;;37.70;34.10;;;19.20;99.90;;;;;;4961761;28;20050;-79
2021/06/18 02:27:05;;;;;;;36.53;32.80;;;19.10;99.90;;;;;;4977173;28;20042;-80
2021/06/18 02:29:31;;;;;;;35.00;31.40;;;19.10;99.90;;;;;;4984469;28;20066;-79
2021/06/18 02:32:01;;;;;;;43.17;33.65;;;19.10;99.90;;;;;;4979765;28;20034;-80
2021/06/18 02:34:27;;;;;;;41.63;36.10;;;19.10;99.90;;;;;;4980921;28;20059;-79
2021/06/18 02:36:53;;;;;;;36.65;33.35;;;19.10;99.90;;;;;;4983550;28;20047;-80
2021/06/18 02:39:18;;;;;;;38.50;34.50;;;19.20;99.90;;;;;;4985210;28;20126;-80
2021/06/18 02:41:44;;;;;;;38.92;34.72;;;19.20;99.90;;;;;;4984209;28;20804;-80
2021/06/18 02:44:10;;;;;;;39.13;34.92;;;19.30;99.90;;;;;;4966401;28;20062;-79
2021/06/18 02:46:36;;;;;;;38.85;34.78;;;19.20;99.90;;;;;;4984014;28;20103;-80
2021/06/18 02:49:03;;;;;;;36.78;33.08;;;19.20;99.90;;;;;;4981679;28;20042;-80
2021/06/18 02:51:43;;;;;;;35.58;31.98;;;19.20;99.90;;;;;;4969352;28;20034;-80
2021/06/18 02:54:13;;;;;;;39.80;35.83;;;19.30;99.90;;;;;;4974571;28;20038;-80
2021/06/18 02:56:48;;;;;;;40.33;36.45;;;19.30;99.90;;;;;;4963397;28;20042;-80
2021/06/18 02:59:35;;;;;;;41.28;36.67;;;19.30;99.90;;;;;;4983885;28;20027;-80
2021/06/18 03:02:02;;;;;;;39.22;35.13;;;19.30;99.90;;;;;;4963651;28;20038;-80
2021/06/18 03:04:32;;;;;;;42.67;38.53;;;19.20;99.90;;;;;;4983350;28;20039;-79
2021/06/18 03:07:06;;;;;;;40.83;36.65;;;19.20;99.90;;;;;;4980453;28;20073;-79
2021/06/18 03:09:36;;;;;;;40.53;36.33;;;19.20;99.90;;;;;;4984160;28;20049;-79
2021/06/18 03:12:04;;;;;;;47.17;39.05;;;19.10;99.90;;;;;;4980568;28;20640;-79
2021/06/18 03:14:35;;;;;;;41.30;37.17;;;19.10;99.90;;;;;;4986112;28;20450;-79
2021/06/18 03:17:03;;;;;;;43.78;39.38;;;19.10;99.90;;;;;;4981508;28;20391;-79
2021/06/18 03:19:41;;;;;;;39.05;35.25;;;19.00;99.90;;;;;;4982024;28;20047;-79
2021/06/18 03:22:07;;;;;;;38.58;34.88;;;19.10;99.90;;;;;;4968962;28;20045;-79
2021/06/18 03:24:35;;;;;;;40.63;35.60;;;19.10;99.90;;;;;;4969280;28;20069;-80
2021/06/18 03:27:01;;;;;;;37.15;33.35;;;19.10;99.90;;;;;;4980906;28;20101;-79
2021/06/18 03:29:29;;;;;;;41.97;37.85;;;19.10;99.90;;;;;;4983560;28;20081;-79
2021/06/18 03:31:57;;;;;;;46.08;41.47;;;19.10;99.90;;;;;;4967221;28;20034;-79
2021/06/18 03:34:24;;;;;;;43.47;39.22;;;19.10;99.90;;;;;;4982537;28;20038;-79
2021/06/18 03:36:51;;;;;;;43.97;39.65;;;19.00;99.90;;;;;;4976517;28;20045;-79
2021/06/18 03:39:21;;;;;;;48.35;42.08;;;19.10;99.90;;;;;;4978765;28;20046;-79
2021/06/18 03:41:47;;;;;;;44.10;39.45;;;19.00;99.90;;;;;;4971796;28;20046;-79
2021/06/18 03:44:15;;;;;;;42.40;37.80;;;19.00;99.90;;;;;;4984673;28;20170;-79
2021/06/18 03:46:42;;;;;;;43.35;38.97;;;19.10;99.90;;;;;;4985887;28;20046;-79
2021/06/18 03:49:10;;;;;;;42.00;37.85;;;19.10;99.90;;;;;;4985121;28;20034;-79
2021/06/18 03:51:36;;;;;;;42.60;38.35;;;19.10;99.90;;;;;;4985332;28;20212;-80
2021/06/18 03:54:03;;;;;;;47.08;42.15;;;19.20;99.90;;;;;;4983419;28;21140;-79
2021/06/18 03:56:30;;;;;;;46.95;42.17;;;19.30;99.90;;;;;;4985937;28;20038;-79
2021/06/18 03:58:57;;;;;;;46.67;41.92;;;19.30;99.90;;;;;;4985868;28;20061;-80
2021/06/18 04:01:25;;;;;;;44.95;40.15;;;19.30;99.90;;;;;;4986439;28;20109;-79
2021/06/18 04:03:53;;;;;;;42.95;38.67;;;19.40;99.90;;;;;;4984495;28;20395;-80
2021/06/18 04:06:20;;;;;;;40.40;36.28;;;19.40;99.90;;;;;;4985865;28;20049;-80
2021/06/18 04:08:46;;;;;;;48.65;43.53;;;19.50;99.90;;;;;;4984569;28;20038;-79
2021/06/18 04:11:13;;;;;;;45.47;40.47;;;19.50;99.90;;;;;;4984032;28;20049;-79
2021/06/18 04:13:40;;;;;;;47.22;41.97;;;19.60;99.90;;;;;;4983034;28;20842;-79
2021/06/18 04:16:12;;;;;;;45.53;41.17;;;19.60;99.90;;;;;;4984250;28;20491;-79
2021/06/18 04:18:42;;;;;;;46.75;42.15;;;19.60;99.90;;;;;;4983544;28;20054;-79
2021/06/18 04:21:18;;;;;;;48.13;43.00;;;19.60;99.90;;;;;;4983056;28;20109;-79
2021/06/18 04:23:44;;;;;;;48.10;42.92;;;19.60;99.90;;;;;;4971861;28;20127;-79
2021/06/18 04:26:10;;;;;;;43.92;39.22;;;19.60;99.90;;;;;;4988758;28;20117;-79
2021/06/18 04:28:37;;;;;;;48.00;42.88;;;19.70;99.90;;;;;;4986281;28;20129;-80
2021/06/18 04:31:04;;;;;;;45.45;40.60;;;19.70;99.90;;;;;;4982721;28;20066;-79
2021/06/18 04:33:29;;;;;;;43.30;39.13;;;19.70;99.90;;;;;;4982847;28;20034;-79
2021/06/18 04:35:55;;;;;;;45.78;41.13;;;19.70;99.90;;;;;;4980663;28;20089;-79
2021/06/18 04:38:20;;;;;;;42.53;38.40;;;19.80;99.90;;;;;;4984000;28;20038;-79
2021/06/18 04:40:46;;;;;;;38.63;34.58;;;19.90;99.90;;;;;;4983653;28;20085;-79
2021/06/18 04:43:12;;;;;;;39.10;35.10;;;20.00;99.90;;;;;;4982372;28;20702;-79
2021/06/18 04:45:38;;;;;;;41.22;36.97;;;20.20;99.90;;;;;;4985762;28;21117;-79
2021/06/18 04:48:04;;;;;;;38.83;34.97;;;20.30;99.90;;;;;;4973149;28;20498;-80
2021/06/18 04:50:30;;;;;;;38.40;34.67;;;20.40;99.90;;;;;;4950007;28;20050;-80
2021/06/18 04:52:56;;;;;;;38.67;34.83;;;20.60;99.90;;;;;;4983274;28;20041;-80
2021/06/18 04:55:22;;;;;;;38.67;34.35;;;20.60;99.90;;;;;;4985306;28;20035;-80
2021/06/18 04:57:49;;;;;;;35.70;32.03;;;20.70;99.90;;;;;;4984371;28;20039;-80
2021/06/18 05:00:16;;;;;;;38.25;34.45;;;20.70;99.90;;;;;;4972765;28;20525;-80
2021/06/18 05:02:43;;;;;;;38.75;34.60;;;20.70;99.90;;;;;;4973331;28;20042;-80
2021/06/18 05:05:09;;;;;;;35.28;31.85;;;20.60;99.90;;;;;;4973274;28;20089;-81
2021/06/18 05:07:36;;;;;;;36.33;32.63;;;20.60;99.90;;;;;;4957343;28;20050;-82
2021/06/18 05:10:05;;;;;;;34.60;31.10;;;20.70;99.90;;;;;;4988649;28;20400;-81
2021/06/18 05:12:42;;;;;;;35.15;31.63;;;20.60;99.90;;;;;;4964995;28;20509;-81
2021/06/18 05:15:21;;;;;;;33.92;30.75;;;20.60;99.90;;;;;;4987230;28;20128;-81
2021/06/18 05:17:48;;;;;;;33.33;29.85;;;20.60;99.90;;;;;;4988658;28;20038;-82
2021/06/18 05:20:14;;;;;;;35.28;31.77;;;20.70;99.90;;;;;;4988101;28;20038;-81
2021/06/18 05:22:40;;;;;;;35.25;31.55;;;20.70;99.90;;;;;;4973795;28;20067;-81
2021/06/18 05:25:07;;;;;;;34.55;30.92;;;20.60;99.90;;;;;;4982809;28;20162;-82
2021/06/18 05:27:32;;;;;;;33.25;29.98;;;20.80;99.90;;;;;;4968306;28;20487;-82
2021/06/18 05:30:02;;;;;;;34.80;31.30;;;20.80;99.90;;;;;;4988378;28;20094;-82
2021/06/18 05:32:47;;;;;;;33.00;29.70;;;20.80;99.90;;;;;;4966653;28;20050;-81
2021/06/18 05:35:13;;;;;;;33.38;30.15;;;20.80;99.90;;;;;;4988963;28;20541;-82
2021/06/18 05:37:39;;;;;;;35.63;32.08;;;20.90;99.90;;;;;;4985665;28;20074;-82
2021/06/18 05:40:06;;;;;;;34.25;30.75;;;20.90;99.90;;;;;;4988934;28;20046;-82
2021/06/18 05:42:32;;;;;;;35.58;29.80;;;20.90;99.90;;;;;;4986487;28;20038;-81
2021/06/18 05:44:58;;;;;;;32.53;29.42;;;21.00;99.90;;;;;;4986696;28;20043;-81
2021/06/18 05:47:23;;;;;;;32.88;29.45;;;21.00;99.90;;;;;;4974339;28;20042;-82
2021/06/18 05:49:49;;;;;;;31.75;28.33;;;21.20;99.90;;;;;;4991138;28;20045;-81
2021/06/18 05:52:15;;;;;;;32.15;29.13;;;21.20;99.90;;;;;;4986369;28;20118;-83
2021/06/18 05:54:40;;;;;;;33.42;30.05;;;21.30;99.90;;;;;;4988976;28;20045;-82
2021/06/18 05:57:20;;;;;;;32.17;28.88;;;21.30;99.90;;;;;;4988352;28;20113;-82
2021/06/18 05:59:52;;;;;;;32.90;29.65;;;21.30;99.90;;;;;;4974131;28;20057;-82
2021/06/18 06:02:28;;;;;;;30.42;27.50;;;21.30;99.90;;;;;;4937438;28;20578;-83
2021/06/18 06:04:55;;;;;;;;;;;21.30;99.90;;;;;;4971432;28;20053;-81
2021/06/18 06:07:25;;;;;;;31.05;27.73;;;21.40;99.90;;;;;;4970290;28;19922;-79
2021/06/18 06:09:52;;;;;;;29.70;26.95;;;21.40;99.90;;;;;;4966828;28;20035;-81
2021/06/18 06:12:18;;;;;;;31.88;28.48;;;21.40;99.90;;;;;;4984939;28;20089;-81
2021/06/18 06:14:43;;;;;;;33.13;29.52;;;21.40;99.90;;;;;;4975578;28;20045;-81
2021/06/18 06:17:09;;;;;;;32.47;29.33;;;21.40;99.90;;;;;;4982543;28;20037;-81
2021/06/18 06:19:35;;;;;;;29.13;26.42;;;21.60;99.90;;;;;;4986249;28;20042;-82
2021/06/18 06:22:01;;;;;;;27.58;25.02;;;22.00;99.90;;;;;;4969125;28;20113;-81
2021/06/18 06:24:27;;;;;;;28.63;25.95;;;22.30;99.90;;;;;;4970446;28;20462;-81
2021/06/18 06:26:56;;;;;;;26.92;24.33;;;22.50;99.90;;;;;;4983276;28;20042;-81
2021/06/18 06:29:26;;;;;;;27.85;25.25;;;22.70;99.80;;;;;;4970846;28;20064;-81
2021/06/18 06:31:51;;;;;;;28.85;26.08;;;22.90;99.30;;;;;;4989273;28;20038;-81
2021/06/18 06:34:17;;;;;;;28.65;25.33;;;22.90;98.70;;;;;;4987388;28;20398;-81
2021/06/18 06:36:42;;;;;;;26.02;23.60;;;23.00;98.70;;;;;;4982224;28;20054;-81
2021/06/18 06:39:08;;;;;;;25.63;23.17;;;23.40;98.80;;;;;;4987148;28;20034;-82
2021/06/18 06:41:36;;;;;;;27.23;24.60;;;23.70;98.20;;;;;;4982476;28;20379;-81
2021/06/18 06:44:03;;;;;;;27.88;24.95;;;23.60;97.30;;;;;;4988061;28;20525;-80
2021/06/18 06:46:28;;;;;;;26.80;24.20;;;23.40;97.10;;;;;;4986563;28;20118;-82
2021/06/18 06:48:54;;;;;;;27.98;25.25;;;23.30;97.30;;;;;;4981390;28;20458;-81
2021/06/18 06:51:20;;;;;;;26.63;24.20;;;23.10;97.50;;;;;;4985801;28;20486;-81
2021/06/18 06:53:45;;;;;;;25.88;23.50;;;23.10;97.60;;;;;;4987844;28;20051;-81
2021/06/18 06:56:12;;;;;;;27.00;24.60;;;23.30;97.90;;;;;;4985693;28;20046;-81
2021/06/18 06:58:38;;;;;;;26.38;23.92;;;23.00;97.80;;;;;;4952813;28;20050;-81
2021/06/18 07:01:03;;;;;;;27.77;25.08;;;23.10;97.70;;;;;;4982303;28;20042;-81
2021/06/18 07:03:29;;;;;;;27.27;24.58;;;22.90;97.80;;;;;;4980534;28;20038;-80
2021/06/18 07:05:55;;;;;;;25.77;23.48;;;22.80;98.00;;;;;;4967674;28;20097;-79
2021/06/18 07:08:24;;;;;;;28.45;25.65;;;22.80;98.10;;;;;;4981518;28;20038;-80
2021/06/18 07:10:53;;;;;;;25.55;23.25;;;22.80;98.50;;;;;;4975968;28;20039;-79
2021/06/18 07:13:18;;;;;;;27.40;24.63;;;22.80;98.20;;;;;;4981025;28;20766;-79
2021/06/18 07:15:46;;;;;;;26.13;23.63;;;22.70;98.40;;;;;;4982840;28;20038;-82
2021/06/18 07:18:12;;;;;;;24.58;22.15;;;22.60;98.20;;;;;;4986030;28;20038;-79
2021/06/18 07:20:38;;;;;;;24.77;22.52;;;22.60;98.40;;;;;;4982298;28;20097;-80
2021/06/18 07:23:04;;;;;;;24.67;22.25;;;22.50;98.40;;;;;;4980493;28;20043;-80
2021/06/18 07:25:31;;;;;;;25.13;22.90;;;22.50;98.60;;;;;;4986118;28;20042;-79
2021/06/18 07:27:56;;;;;;;25.10;22.80;;;22.40;98.70;;;;;;4984611;28;20042;-81
2021/06/18 07:30:23;;;;;;;26.08;23.77;;;22.50;98.70;;;;;;4983265;28;20038;-81
2021/06/18 07:32:50;;;;;;;24.92;22.52;;;22.60;98.60;;;;;;4970747;28;20039;-80
2021/06/18 07:35:16;;;;;;;27.50;24.90;;;22.70;98.60;;;;;;4984331;28;20031;-80
2021/06/18 07:37:43;;;;;;;26.30;24.00;;;22.70;98.30;;;;;;4982601;28;20820;-79
2021/06/18 07:40:11;;;;;;;27.65;25.20;;;22.80;98.60;;;;;;4985751;28;20736;-80
2021/06/18 07:42:37;;;;;;;27.83;25.40;;;22.90;98.40;;;;;;4985399;28;20165;-79
2021/06/18 07:45:04;;;;;;;27.98;25.27;;;22.90;98.30;;;;;;4983354;28;20125;-80
2021/06/18 07:47:30;;;;;;;30.42;26.08;;;22.90;98.00;;;;;;4984782;28;20042;-81
2021/06/18 07:49:55;;;;;;;27.30;24.58;;;23.00;98.20;;;;;;4964811;28;20057;-79
2021/06/18 07:52:21;;;;;;;30.83;25.58;;;23.00;98.10;;;;;;4968670;28;20410;-83
2021/06/18 07:54:47;;;;;;;29.58;26.77;;;22.90;98.30;;;;;;4978801;28;20115;-79
2021/06/18 07:57:15;;;;;;;27.50;24.85;;;22.80;98.20;;;;;;4977371;28;20082;-79
2021/06/18 07:59:41;;;;;;;27.90;25.17;;;22.80;98.50;;;;;;4982946;28;20117;-79
2021/06/18 08:02:07;;;;;;;29.80;27.15;;;22.90;98.50;;;;;;4980316;28;20043;-80
2021/06/18 08:04:32;;;;;;;29.25;26.40;;;22.90;98.50;;;;;;4982061;28;20562;-79
2021/06/18 08:06:58;;;;;;;28.85;26.27;;;22.90;98.60;;;;;;4986287;28;20042;-81
2021/06/18 08:09:23;;;;;;;28.90;26.05;;;22.90;98.40;;;;;;4966534;28;20153;-82
2021/06/18 08:11:49;;;;;;;28.35;25.77;;;22.90;98.50;;;;;;4981235;28;20891;-80
2021/06/18 08:14:15;;;;;;;26.88;24.48;;;23.00;98.50;;;;;;4982673;28;20046;-80
2021/06/18 08:16:41;;;;;;;28.55;25.45;;;23.10;98.50;;;;;;4982629;28;20419;-79
2021/06/18 08:19:06;;;;;;;26.02;23.65;;;23.20;98.40;;;;;;4985947;28;20041;-80
2021/06/18 08:21:32;;;;;;;27.27;24.70;;;23.30;98.50;;;;;;4985406;28;20112;-80
2021/06/18 08:23:58;;;;;;;27.23;24.73;;;23.40;98.40;;;;;;4983527;28;20084;-79
2021/06/18 08:26:24;;;;;;;24.88;22.60;;;23.40;98.10;;;;;;4979642;28;20465;-81
2021/06/18 08:28:49;;;;;;;26.23;23.50;;;23.40;97.80;;;;;;4982651;28;20035;-79
2021/06/18 08:31:15;;;;;;;57.97;21.77;;;23.40;97.40;;;;;;4984024;28;20089;-80
2021/06/18 08:33:41;;;;;;;20.15;18.20;;;23.40;98.00;;;;;;4978670;28;20042;-79
2021/06/18 08:36:06;;;;;;;19.88;17.98;;;23.40;97.30;;;;;;4983631;28;20045;-79
2021/06/18 08:38:35;;;;;;;18.88;17.27;;;23.40;97.30;;;;;;4982517;28;20528;-79
2021/06/18 08:41:05;;;;;;;21.42;17.98;;;23.40;97.20;;;;;;4987923;28;20038;-80
2021/06/18 08:43:32;;;;;;;19.95;17.80;;;23.40;97.00;;;;;;4986074;28;20053;-79
2021/06/18 08:46:01;;;;;;;19.48;17.52;;;23.50;97.50;;;;;;4969464;28;20491;-82
2021/06/18 08:48:31;;;;;;;19.85;18.15;;;23.60;97.40;;;;;;4969607;28;20045;-79
2021/06/18 08:50:59;;;;;;;20.02;18.02;;;23.60;97.30;;;;;;4978516;28;20066;-81
2021/06/18 08:53:26;;;;;;;18.50;16.60;;;23.80;97.70;;;;;;4981580;28;20550;-81
2021/06/18 08:55:54;;;;;;;19.42;16.58;;;23.90;96.90;;;;;;4973971;28;20074;-84
2021/06/18 08:58:22;;;;;;;16.90;15.23;;;23.90;96.90;;;;;;4974568;28;20094;-82
2021/06/18 09:00:48;;;;;;;24.00;17.13;;;23.80;96.00;;;;;;4975056;28;20043;-82
2021/06/18 09:03:36;;;;;;;18.55;16.85;;;23.80;96.50;;;;;;4973141;28;20527;-79
2021/06/18 09:06:20;;;;;;;15.07;13.60;;;23.90;96.90;;;;;;4971750;28;20078;-82
2021/06/18 09:08:46;;;;;;;18.98;15.07;;;24.00;96.00;;;;;;4956168;28;20479;-82
2021/06/18 09:11:12;;;;;;;15.60;14.20;;;24.00;96.10;;;;;;4972764;28;20046;-80
2021/06/18 09:13:39;;;;;;;12.35;11.18;;;24.10;96.40;;;;;;4972938;28;20038;-81
2021/06/18 09:16:05;;;;;;;12.18;10.60;;;24.20;96.10;;;;;;4972850;28;20035;-81
2021/06/18 09:18:39;;;;;;;10.48;8.60;;;24.30;95.80;;;;;;4971530;28;20041;-80
2021/06/18 09:21:13;;;;;;;8.35;7.55;;;24.50;94.70;;;;;;4974337;28;20095;-82
2021/06/18 09:23:42;;;;;;;9.57;8.63;;;24.60;94.30;;;;;;4973650;28;20779;-83
2021/06/18 09:26:20;;;;;;;9.30;8.40;;;24.70;94.70;;;;;;4974751;28;20410;-80
2021/06/18 09:29:17;;;;;;;10.45;8.38;;;25.00;94.90;;;;;;4976085;28;20074;-81
2021/06/18 09:31:53;;;;;;;10.43;7.80;;;25.10;94.80;;;;;;4974359;28;20076;-81
2021/06/18 09:37:20;;;;;;;7.82;7.13;;;25.50;94.10;;;;;;4971758;28;20432;-80
2021/06/18 09:40:01;;;;;;;6.50;5.90;;;25.50;93.50;;;;;;4970767;28;20053;-82
2021/06/18 09:42:26;;;;;;;6.60;6.00;;;25.70;93.60;;;;;;4977329;28;20061;-82
2021/06/18 09:45:11;;;;;;;8.48;5.47;;;25.80;94.10;;;;;;4974726;28;20959;-79
2021/06/18 09:47:38;;;;;;;5.18;4.68;;;25.80;92.70;;;;;;4974187;28;20054;-81
2021/06/18 09:50:28;;;;;;;5.95;5.30;;;25.70;93.20;;;;;;4974625;28;20039;-80
2021/06/18 09:53:24;;;;;;;6.80;4.28;;;25.80;92.90;;;;;;4957825;28;20054;-82
2021/06/18 09:56:07;;;;;;;6.10;5.05;;;25.80;92.30;;;;;;4957955;28;20061;-79
2021/06/18 09:58:35;;;;;;;4.88;3.80;;;25.90;92.70;;;;;;4977009;28;20070;-80
2021/06/18 10:01:21;;;;;;;5.07;3.58;;;25.90;93.00;;;;;;4977579;28;20042;-79
2021/06/18 10:04:06;;;;;;;5.00;4.50;;;26.00;92.60;;;;;;4974087;28;20049;-80
2021/06/18 10:06:33;;;;;;;11.90;4.38;;;26.20;92.20;;;;;;4979542;28;20056;-80
2021/06/18 10:09:00;;;;;;;4.97;2.78;;;26.40;92.20;;;;;;4974139;28;20073;-81
2021/06/18 10:11:27;;;;;;;8.00;2.88;;;26.30;90.40;;;;;;4979557;28;20038;-81
2021/06/18 10:13:54;;;;;;;7.68;3.28;;;26.40;90.50;;;;;;4971638;28;20046;-81
2021/06/18 10:16:22;;;;;;;6.00;3.15;;;26.40;90.50;;;;;;4976579;28;20048;-80
2021/06/18 10:18:49;;;;;;;6.60;3.00;;;26.40;90.20;;;;;;4978982;28;21414;-79
2021/06/18 10:21:19;;;;;;;3.92;3.03;;;26.30;90.20;;;;;;4978382;28;20834;-80
2021/06/18 10:23:48;;;;;;;9.05;3.60;;;26.20;90.40;;;;;;4972553;28;20113;-84
2021/06/18 10:26:15;;;;;;;7.35;4.03;;;26.20;90.00;;;;;;4975663;28;20038;-80
2021/06/18 10:28:52;;;;;;;3.60;3.10;;;26.20;90.40;;;;;;4978442;28;20682;-79
2021/06/18 10:31:40;;;;;;;8.65;3.30;;;26.10;90.40;;;;;;4971525;28;20046;-80
2021/06/18 10:34:09;;;;;;;4.63;2.97;;;26.10;89.80;;;;;;4975358;28;20046;-83
2021/06/18 10:36:37;;;;;;;2.92;2.63;;;26.00;90.00;;;;;;4979216;28;20495;-80
2021/06/18 10:39:15;;;;;;;4.57;4.00;;;26.10;90.30;;;;;;4975325;28;20046;-79
2021/06/18 10:41:53;;;;;;;6.00;3.75;;;26.00;89.90;;;;;;4959394;28;20101;-80
2021/06/18 10:44:38;;;;;;;5.22;4.20;;;26.00;90.50;;;;;;4976602;28;20046;-79
2021/06/18 10:47:04;;;;;;;6.13;3.33;;;25.80;91.00;;;;;;4977794;28;20068;-80
2021/06/18 10:49:38;;;;;;;8.75;3.40;;;26.00;91.00;;;;;;4979990;28;20034;-81
2021/06/18 10:52:15;;;;;;;3.50;3.20;;;25.90;91.50;;;;;;4978457;28;20085;-79
2021/06/18 10:54:46;;;;;;;4.68;4.00;;;26.00;91.60;;;;;;4975994;28;20050;-79
2021/06/18 10:57:13;;;;;;;4.50;3.70;;;26.10;92.00;;;;;;4976175;28;20101;-81
2021/06/18 10:59:44;;;;;;;9.10;3.55;;;26.40;91.70;;;;;;4977563;28;20478;-79
2021/06/18 11:02:36;;;;;;;5.00;3.47;;;26.60;92.40;;;;;;4975761;28;20414;-80
2021/06/18 11:05:06;;;;;;;5.40;3.70;;;26.80;91.30;;;;;;4964729;28;20050;-82
2021/06/18 11:07:39;;;;;;;5.40;3.88;;;26.80;91.30;;;;;;4974723;28;20050;-80
2021/06/18 11:10:06;;;;;;;16.77;3.90;;;26.70;90.90;;;;;;4970537;28;20518;-80
2021/06/18 11:12:33;;;;;;;8.90;4.00;;;26.70;90.80;;;;;;4973139;28;20524;-83
2021/06/18 11:15:05;;;;;;;3.92;3.63;;;26.70;91.00;;;;;;4974827;28;20043;-83
2021/06/18 11:17:37;;;;;;;5.65;3.50;;;26.70;90.90;;;;;;4973578;28;20518;-79
2021/06/18 11:20:07;;;;;;;14.63;4.07;;;26.70;90.70;;;;;;4973129;28;20049;-81
2021/06/18 11:22:39;;;;;;;4.10;3.25;;;26.70;89.10;;;;;;4973983;28;20066;-79
2021/06/18 11:25:25;;;;;;;3.45;2.88;;;26.60;88.60;;;;;;4974706;28;20474;-79
2021/06/18 11:27:51;;;;;;;4.40;3.13;;;26.40;89.20;;;;;;4974767;28;20129;-79
2021/06/18 11:30:25;;;;;;;3.53;2.72;;;26.50;90.20;;;;;;4974891;28;20122;-80
2021/06/18 11:32:53;;;;;;;3.28;2.90;;;26.70;90.20;;;;;;4955809;28;20046;-79
2021/06/18 11:35:33;;;;;;;3.95;3.60;;;27.10;90.80;;;;;;4974393;28;20487;-80
2021/06/18 11:38:11;;;;;;;3.72;3.33;;;27.40;89.90;;;;;;4977414;28;20061;-81
2021/06/18 11:40:36;;;;;;;6.38;3.17;;;27.50;90.00;;;;;;4963085;28;20707;-79
2021/06/18 11:43:02;;;;;;;4.95;3.38;;;27.60;88.10;;;;;;4974768;28;20053;-79
2021/06/18 11:45:42;;;;;;;5.88;3.72;;;27.70;87.50;;;;;;4957486;28;20034;-79
2021/06/18 11:48:15;;;;;;;9.25;3.95;;;27.70;87.30;;;;;;4972476;28;20853;-80
2021/06/18 11:50:42;;;;;;;5.47;4.03;;;27.70;87.70;;;;;;4975068;28;20038;-80
2021/06/18 11:53:09;;;;;;;5.45;3.58;;;27.90;88.40;;;;;;4976325;28;20038;-82
2021/06/18 11:55:35;;;;;;;7.45;3.63;;;28.00;88.50;;;;;;4962691;28;20077;-80
2021/06/18 11:58:00;;;;;;;5.30;3.95;;;28.10;86.70;;;;;;4977561;28;20113;-79
2021/06/18 12:00:31;;;;;;;3.22;2.90;;;28.10;87.00;;;;;;4975797;28;20038;-79
2021/06/18 12:02:58;;;;;;;7.32;3.08;;;28.20;87.40;;;;;;4962708;28;20039;-80
2021/06/18 12:05:32;;;;;;;5.28;4.72;;;28.20;86.70;;;;;;4980761;28;20101;-81
2021/06/18 12:07:59;;;;;;;5.28;4.63;;;28.40;88.20;;;;;;4978932;28;20042;-79
2021/06/18 12:10:34;;;;;;;11.88;4.30;;;28.30;87.60;;;;;;4979368;28;20073;-80
2021/06/18 12:13:00;;;;;;;;;;;28.30;89.20;;;;;;4976641;28;20053;-83
2021/06/18 12:15:31;;;;;;;4.88;4.47;;;28.50;86.30;;;;;;4982510;28;19930;-80
2021/06/18 12:18:01;;;;;;;9.73;5.10;;;28.30;87.60;;;;;;4978050;28;20041;-79
2021/06/18 12:20:37;;;;;;;6.38;4.82;;;28.20;86.90;;;;;;4978822;28;20053;-79
2021/06/18 12:23:05;;;;;;;8.02;6.00;;;28.40;86.70;;;;;;4976680;28;20212;-79
2021/06/18 12:25:31;;;;;;;5.00;4.60;;;28.30;85.80;;;;;;4976874;28;20042;-80
2021/06/18 12:28:00;;;;;;;4.60;4.20;;;28.30;87.90;;;;;;4981092;28;20054;-82
2021/06/18 12:30:32;;;;;;;4.55;4.15;;;28.40;89.30;;;;;;4963574;28;20038;-81
2021/06/18 12:32:59;;;;;;;6.55;4.60;;;28.50;89.00;;;;;;4979925;28;20038;-81
2021/06/18 12:35:37;;;;;;;5.10;4.60;;;28.60;87.00;;;;;;4973448;28;20082;-81
2021/06/18 12:38:04;;;;;;;7.68;4.97;;;28.70;88.20;;;;;;4966605;28;20069;-81
2021/06/18 12:40:32;;;;;;;4.97;4.13;;;28.80;86.70;;;;;;4978261;28;20424;-81
2021/06/18 12:43:05;;;;;;;6.03;5.28;;;28.90;86.80;;;;;;4980242;28;20035;-82
2021/06/18 12:45:31;;;;;;;6.30;4.55;;;28.90;82.60;;;;;;4976124;28;20049;-79